sensor_id;sensor_type;location;lat;lon;timestamp;P1;durP1;ratioP1;P2;durP2;ratioP2
51686;SDS011;37774;52.192;4.584;2022-11-14T00:00:26;27.95;;;13.52;;
51686;SDS011;37774;52.192;4.584;2022-11-14T00:02:53;19.75;;;11.30;;
51686;SDS011;37774;52.192;4.584;2022-11-14T00:05:21;19.40;;;10.82;;
51686;SDS011;37774;52.192;4.584;2022-11-14T00:07:47;19.25;;;10.38;;
51686;SDS011;37774;52.192;4.584;2022-11-14T00:10:14;24.38;;;10.85;;
51686;SDS011;37774;52.192;4.584;2022-11-14T00:12:41;20.20;;;10.48;;
51686;SDS011;37774;52.192;4.584;2022-11-14T00:15:08;22.48;;;11.32;;
51686;SDS011;37774;52.192;4.584;2022-11-14T00:17:34;22.35;;;11.68;;
51686;SDS011;37774;52.192;4.584;2022-11-14T00:20:01;30.50;;;12.05;;
51686;SDS011;37774;52.192;4.584;2022-11-14T00:22:30;17.48;;;10.32;;
51686;SDS011;37774;52.192;4.584;2022-11-14T00:24:56;24.05;;;11.32;;
51686;SDS011;37774;52.192;4.584;2022-11-14T00:27:23;19.05;;;10.18;;
51686;SDS011;37774;52.192;4.584;2022-11-14T00:29:49;22.75;;;10.60;;
51686;SDS011;37774;52.192;4.584;2022-11-14T00:32:16;17.38;;;9.35;;
51686;SDS011;37774;52.192;4.584;2022-11-14T00:34:44;19.25;;;10.57;;
51686;SDS011;37774;52.192;4.584;2022-11-14T00:37:10;24.67;;;11.02;;
51686;SDS011;37774;52.192;4.584;2022-11-14T00:39:38;24.25;;;9.27;;
51686;SDS011;37774;52.192;4.584;2022-11-14T00:42:05;26.77;;;10.10;;
51686;SDS011;37774;52.192;4.584;2022-11-14T00:44:31;20.00;;;10.35;;
51686;SDS011;37774;52.192;4.584;2022-11-14T00:46:58;25.95;;;10.80;;
51686;SDS011;37774;52.192;4.584;2022-11-14T00:49:25;23.63;;;11.75;;
51686;SDS011;37774;52.192;4.584;2022-11-14T00:51:51;23.33;;;11.70;;
51686;SDS011;37774;52.192;4.584;2022-11-14T00:54:18;22.60;;;10.38;;
51686;SDS011;37774;52.192;4.584;2022-11-14T00:56:46;23.30;;;12.63;;
51686;SDS011;37774;52.192;4.584;2022-11-14T00:59:12;23.85;;;11.48;;
51686;SDS011;37774;52.192;4.584;2022-11-14T01:01:39;27.42;;;11.27;;
51686;SDS011;37774;52.192;4.584;2022-11-14T01:04:05;26.27;;;11.75;;
51686;SDS011;37774;52.192;4.584;2022-11-14T01:06:32;25.63;;;12.10;;
51686;SDS011;37774;52.192;4.584;2022-11-14T01:08:58;19.80;;;9.65;;
51686;SDS011;37774;52.192;4.584;2022-11-14T01:11:25;25.17;;;11.43;;
51686;SDS011;37774;52.192;4.584;2022-11-14T01:13:53;22.52;;;11.15;;
51686;SDS011;37774;52.192;4.584;2022-11-14T01:16:19;18.92;;;10.65;;
51686;SDS011;37774;52.192;4.584;2022-11-14T01:18:46;26.02;;;12.10;;
51686;SDS011;37774;52.192;4.584;2022-11-14T01:21:13;28.15;;;11.48;;
51686;SDS011;37774;52.192;4.584;2022-11-14T01:23:39;27.08;;;12.52;;
51686;SDS011;37774;52.192;4.584;2022-11-14T01:26:08;27.08;;;12.13;;
51686;SDS011;37774;52.192;4.584;2022-11-14T01:28:35;22.00;;;10.98;;
51686;SDS011;37774;52.192;4.584;2022-11-14T01:31:10;28.60;;;12.90;;
51686;SDS011;37774;52.192;4.584;2022-11-14T01:33:37;22.42;;;12.15;;
51686;SDS011;37774;52.192;4.584;2022-11-14T01:36:04;26.15;;;12.80;;
51686;SDS011;37774;52.192;4.584;2022-11-14T01:38:30;29.15;;;12.48;;
51686;SDS011;37774;52.192;4.584;2022-11-14T01:40:57;28.45;;;12.80;;
51686;SDS011;37774;52.192;4.584;2022-11-14T01:43:24;30.98;;;13.20;;
51686;SDS011;37774;52.192;4.584;2022-11-14T01:45:52;29.88;;;13.82;;
51686;SDS011;37774;52.192;4.584;2022-11-14T01:48:21;23.23;;;11.95;;
51686;SDS011;37774;52.192;4.584;2022-11-14T01:50:51;28.65;;;12.23;;
51686;SDS011;37774;52.192;4.584;2022-11-14T01:53:19;26.25;;;11.95;;
51686;SDS011;37774;52.192;4.584;2022-11-14T01:55:46;28.75;;;13.20;;
51686;SDS011;37774;52.192;4.584;2022-11-14T01:58:12;32.70;;;13.30;;
51686;SDS011;37774;52.192;4.584;2022-11-14T02:00:39;24.88;;;12.40;;
51686;SDS011;37774;52.192;4.584;2022-11-14T02:03:06;33.63;;;13.15;;
51686;SDS011;37774;52.192;4.584;2022-11-14T02:05:34;29.63;;;14.05;;
51686;SDS011;37774;52.192;4.584;2022-11-14T02:08:01;26.75;;;13.20;;
51686;SDS011;37774;52.192;4.584;2022-11-14T02:10:27;35.65;;;14.90;;
51686;SDS011;37774;52.192;4.584;2022-11-14T02:12:54;28.02;;;12.65;;
51686;SDS011;37774;52.192;4.584;2022-11-14T02:15:20;34.10;;;13.45;;
51686;SDS011;37774;52.192;4.584;2022-11-14T02:17:48;36.95;;;13.55;;
51686;SDS011;37774;52.192;4.584;2022-11-14T02:20:20;31.77;;;14.45;;
51686;SDS011;37774;52.192;4.584;2022-11-14T02:22:46;34.53;;;14.15;;
51686;SDS011;37774;52.192;4.584;2022-11-14T02:25:13;36.15;;;15.60;;
51686;SDS011;37774;52.192;4.584;2022-11-14T02:27:41;29.85;;;13.88;;
51686;SDS011;37774;52.192;4.584;2022-11-14T02:30:10;30.85;;;15.05;;
51686;SDS011;37774;52.192;4.584;2022-11-14T02:32:37;31.55;;;14.23;;
51686;SDS011;37774;52.192;4.584;2022-11-14T02:35:04;34.67;;;14.40;;
51686;SDS011;37774;52.192;4.584;2022-11-14T02:37:32;28.50;;;13.68;;
51686;SDS011;37774;52.192;4.584;2022-11-14T02:39:58;42.92;;;14.82;;
51686;SDS011;37774;52.192;4.584;2022-11-14T02:42:25;32.33;;;15.77;;
51686;SDS011;37774;52.192;4.584;2022-11-14T02:44:51;34.63;;;15.40;;
51686;SDS011;37774;52.192;4.584;2022-11-14T02:47:18;50.65;;;17.40;;
51686;SDS011;37774;52.192;4.584;2022-11-14T02:49:45;36.60;;;17.15;;
51686;SDS011;37774;52.192;4.584;2022-11-14T02:52:11;39.63;;;15.85;;
51686;SDS011;37774;52.192;4.584;2022-11-14T02:54:40;40.33;;;16.25;;
51686;SDS011;37774;52.192;4.584;2022-11-14T02:57:06;47.55;;;17.33;;
51686;SDS011;37774;52.192;4.584;2022-11-14T02:59:33;43.15;;;17.10;;
51686;SDS011;37774;52.192;4.584;2022-11-14T03:02:02;40.13;;;17.27;;
51686;SDS011;37774;52.192;4.584;2022-11-14T03:04:29;43.78;;;17.38;;
51686;SDS011;37774;52.192;4.584;2022-11-14T03:06:55;49.30;;;18.98;;
51686;SDS011;37774;52.192;4.584;2022-11-14T03:09:22;53.55;;;18.50;;
51686;SDS011;37774;52.192;4.584;2022-11-14T03:11:50;42.80;;;17.60;;
51686;SDS011;37774;52.192;4.584;2022-11-14T03:14:17;61.15;;;20.33;;
51686;SDS011;37774;52.192;4.584;2022-11-14T03:16:43;48.25;;;17.67;;
51686;SDS011;37774;52.192;4.584;2022-11-14T03:19:10;47.03;;;19.90;;
51686;SDS011;37774;52.192;4.584;2022-11-14T03:21:36;48.05;;;19.25;;
51686;SDS011;37774;52.192;4.584;2022-11-14T03:24:03;43.83;;;19.73;;
51686;SDS011;37774;52.192;4.584;2022-11-14T03:26:29;39.13;;;17.85;;
51686;SDS011;37774;52.192;4.584;2022-11-14T03:28:57;46.88;;;19.92;;
51686;SDS011;37774;52.192;4.584;2022-11-14T03:31:24;46.13;;;18.52;;
51686;SDS011;37774;52.192;4.584;2022-11-14T03:33:50;48.75;;;19.48;;
51686;SDS011;37774;52.192;4.584;2022-11-14T03:36:17;51.17;;;18.77;;
51686;SDS011;37774;52.192;4.584;2022-11-14T03:38:45;46.30;;;20.80;;
51686;SDS011;37774;52.192;4.584;2022-11-14T03:41:12;47.88;;;20.75;;
51686;SDS011;37774;52.192;4.584;2022-11-14T03:43:38;44.22;;;19.23;;
51686;SDS011;37774;52.192;4.584;2022-11-14T03:46:06;49.58;;;20.60;;
51686;SDS011;37774;52.192;4.584;2022-11-14T03:48:33;52.42;;;20.15;;
51686;SDS011;37774;52.192;4.584;2022-11-14T03:50:59;56.63;;;21.30;;
51686;SDS011;37774;52.192;4.584;2022-11-14T03:53:26;50.30;;;21.52;;
51686;SDS011;37774;52.192;4.584;2022-11-14T03:55:53;49.83;;;21.30;;
51686;SDS011;37774;52.192;4.584;2022-11-14T03:58:19;48.80;;;20.85;;
51686;SDS011;37774;52.192;4.584;2022-11-14T04:00:46;57.38;;;20.30;;
51686;SDS011;37774;52.192;4.584;2022-11-14T04:03:14;57.25;;;22.45;;
51686;SDS011;37774;52.192;4.584;2022-11-14T04:05:42;46.35;;;19.17;;
51686;SDS011;37774;52.192;4.584;2022-11-14T04:08:08;53.92;;;19.42;;
51686;SDS011;37774;52.192;4.584;2022-11-14T04:10:35;56.90;;;22.05;;
51686;SDS011;37774;52.192;4.584;2022-11-14T04:13:02;57.55;;;21.45;;
51686;SDS011;37774;52.192;4.584;2022-11-14T04:15:29;62.92;;;22.20;;
51686;SDS011;37774;52.192;4.584;2022-11-14T04:17:56;50.03;;;21.83;;
51686;SDS011;37774;52.192;4.584;2022-11-14T04:20:24;52.85;;;20.85;;
51686;SDS011;37774;52.192;4.584;2022-11-14T04:22:50;58.15;;;20.85;;
51686;SDS011;37774;52.192;4.584;2022-11-14T04:25:17;54.38;;;22.10;;
51686;SDS011;37774;52.192;4.584;2022-11-14T04:27:43;51.80;;;21.80;;
51686;SDS011;37774;52.192;4.584;2022-11-14T04:30:10;54.75;;;20.25;;
51686;SDS011;37774;52.192;4.584;2022-11-14T04:32:37;50.45;;;19.08;;
51686;SDS011;37774;52.192;4.584;2022-11-14T04:35:03;65.10;;;21.27;;
51686;SDS011;37774;52.192;4.584;2022-11-14T04:37:31;70.05;;;23.20;;
51686;SDS011;37774;52.192;4.584;2022-11-14T04:39:58;55.17;;;22.85;;
51686;SDS011;37774;52.192;4.584;2022-11-14T04:42:26;50.58;;;22.20;;
51686;SDS011;37774;52.192;4.584;2022-11-14T04:44:53;60.53;;;21.88;;
51686;SDS011;37774;52.192;4.584;2022-11-14T04:47:22;51.50;;;21.38;;
51686;SDS011;37774;52.192;4.584;2022-11-14T04:49:49;60.08;;;24.23;;
51686;SDS011;37774;52.192;4.584;2022-11-14T04:52:15;60.75;;;21.90;;
51686;SDS011;37774;52.192;4.584;2022-11-14T04:54:43;53.53;;;21.27;;
51686;SDS011;37774;52.192;4.584;2022-11-14T04:57:10;56.53;;;20.80;;
51686;SDS011;37774;52.192;4.584;2022-11-14T04:59:36;72.47;;;22.80;;
51686;SDS011;37774;52.192;4.584;2022-11-14T05:02:03;59.25;;;22.48;;
51686;SDS011;37774;52.192;4.584;2022-11-14T05:04:30;63.70;;;22.30;;
51686;SDS011;37774;52.192;4.584;2022-11-14T05:06:56;56.70;;;20.67;;
51686;SDS011;37774;52.192;4.584;2022-11-14T05:09:23;74.90;;;25.02;;
51686;SDS011;37774;52.192;4.584;2022-11-14T05:11:51;51.38;;;20.52;;
51686;SDS011;37774;52.192;4.584;2022-11-14T05:14:17;54.33;;;22.08;;
51686;SDS011;37774;52.192;4.584;2022-11-14T05:16:44;64.70;;;23.48;;
51686;SDS011;37774;52.192;4.584;2022-11-14T05:19:10;55.63;;;20.75;;
51686;SDS011;37774;52.192;4.584;2022-11-14T05:21:37;54.25;;;20.38;;
51686;SDS011;37774;52.192;4.584;2022-11-14T05:24:03;56.03;;;22.55;;
51686;SDS011;37774;52.192;4.584;2022-11-14T05:26:30;59.50;;;23.40;;
51686;SDS011;37774;52.192;4.584;2022-11-14T05:28:58;60.15;;;21.88;;
51686;SDS011;37774;52.192;4.584;2022-11-14T05:31:24;64.32;;;22.95;;
51686;SDS011;37774;52.192;4.584;2022-11-14T05:33:51;62.30;;;21.67;;
51686;SDS011;37774;52.192;4.584;2022-11-14T05:36:18;64.68;;;21.17;;
51686;SDS011;37774;52.192;4.584;2022-11-14T05:38:44;53.90;;;20.67;;
51686;SDS011;37774;52.192;4.584;2022-11-14T05:41:11;60.95;;;20.67;;
51686;SDS011;37774;52.192;4.584;2022-11-14T05:43:39;60.40;;;21.98;;
51686;SDS011;37774;52.192;4.584;2022-11-14T05:46:09;66.05;;;24.52;;
51686;SDS011;37774;52.192;4.584;2022-11-14T05:48:35;66.07;;;21.92;;
51686;SDS011;37774;52.192;4.584;2022-11-14T05:51:02;65.43;;;22.58;;
51686;SDS011;37774;52.192;4.584;2022-11-14T05:53:30;55.28;;;20.65;;
51686;SDS011;37774;52.192;4.584;2022-11-14T05:55:59;62.38;;;21.65;;
51686;SDS011;37774;52.192;4.584;2022-11-14T05:58:25;64.93;;;20.98;;
51686;SDS011;37774;52.192;4.584;2022-11-14T06:01:00;66.75;;;23.42;;
51686;SDS011;37774;52.192;4.584;2022-11-14T06:03:30;60.22;;;22.02;;
51686;SDS011;37774;52.192;4.584;2022-11-14T06:05:58;59.00;;;21.27;;
51686;SDS011;37774;52.192;4.584;2022-11-14T06:08:25;64.78;;;22.05;;
51686;SDS011;37774;52.192;4.584;2022-11-14T06:10:52;62.28;;;21.40;;
51686;SDS011;37774;52.192;4.584;2022-11-14T06:13:19;54.97;;;20.33;;
51686;SDS011;37774;52.192;4.584;2022-11-14T06:15:45;55.40;;;21.23;;
51686;SDS011;37774;52.192;4.584;2022-11-14T06:18:12;63.38;;;22.42;;
51686;SDS011;37774;52.192;4.584;2022-11-14T06:20:40;60.10;;;21.98;;
51686;SDS011;37774;52.192;4.584;2022-11-14T06:23:06;53.35;;;21.10;;
51686;SDS011;37774;52.192;4.584;2022-11-14T06:25:33;59.95;;;20.42;;
51686;SDS011;37774;52.192;4.584;2022-11-14T06:27:59;52.30;;;21.63;;
51686;SDS011;37774;52.192;4.584;2022-11-14T06:30:26;61.55;;;20.95;;
51686;SDS011;37774;52.192;4.584;2022-11-14T06:32:55;61.55;;;20.77;;
51686;SDS011;37774;52.192;4.584;2022-11-14T06:35:22;56.13;;;21.45;;
51686;SDS011;37774;52.192;4.584;2022-11-14T06:37:50;70.45;;;22.35;;
51686;SDS011;37774;52.192;4.584;2022-11-14T06:40:16;53.58;;;21.67;;
51686;SDS011;37774;52.192;4.584;2022-11-14T06:42:43;52.08;;;20.08;;
51686;SDS011;37774;52.192;4.584;2022-11-14T06:45:10;64.70;;;22.67;;
51686;SDS011;37774;52.192;4.584;2022-11-14T06:47:37;54.28;;;19.23;;
51686;SDS011;37774;52.192;4.584;2022-11-14T06:50:04;53.72;;;20.48;;
51686;SDS011;37774;52.192;4.584;2022-11-14T06:52:30;59.35;;;21.25;;
51686;SDS011;37774;52.192;4.584;2022-11-14T06:54:58;60.67;;;20.90;;
51686;SDS011;37774;52.192;4.584;2022-11-14T06:57:25;60.72;;;19.27;;
51686;SDS011;37774;52.192;4.584;2022-11-14T06:59:51;77.78;;;22.45;;
51686;SDS011;37774;52.192;4.584;2022-11-14T07:02:18;56.10;;;20.02;;
51686;SDS011;37774;52.192;4.584;2022-11-14T07:04:44;67.25;;;22.48;;
51686;SDS011;37774;52.192;4.584;2022-11-14T07:07:11;52.45;;;21.17;;
51686;SDS011;37774;52.192;4.584;2022-11-14T07:09:37;50.47;;;18.23;;
51686;SDS011;37774;52.192;4.584;2022-11-14T07:12:06;63.08;;;21.15;;
51686;SDS011;37774;52.192;4.584;2022-11-14T07:14:32;59.45;;;20.83;;
51686;SDS011;37774;52.192;4.584;2022-11-14T07:16:59;63.08;;;24.10;;
51686;SDS011;37774;52.192;4.584;2022-11-14T07:19:25;56.30;;;21.60;;
51686;SDS011;37774;52.192;4.584;2022-11-14T07:21:52;64.75;;;21.58;;
51686;SDS011;37774;52.192;4.584;2022-11-14T07:24:18;53.53;;;18.83;;
51686;SDS011;37774;52.192;4.584;2022-11-14T07:26:45;52.45;;;21.08;;
51686;SDS011;37774;52.192;4.584;2022-11-14T07:29:13;62.67;;;22.40;;
51686;SDS011;37774;52.192;4.584;2022-11-14T07:31:39;69.93;;;23.80;;
51686;SDS011;37774;52.192;4.584;2022-11-14T07:34:06;53.88;;;20.00;;
51686;SDS011;37774;52.192;4.584;2022-11-14T07:36:33;62.38;;;21.30;;
51686;SDS011;37774;52.192;4.584;2022-11-14T07:39:00;66.57;;;20.90;;
51686;SDS011;37774;52.192;4.584;2022-11-14T07:41:26;71.78;;;21.38;;
51686;SDS011;37774;52.192;4.584;2022-11-14T07:43:53;63.00;;;21.10;;
51686;SDS011;37774;52.192;4.584;2022-11-14T07:46:21;58.85;;;19.55;;
51686;SDS011;37774;52.192;4.584;2022-11-14T07:48:47;66.22;;;19.90;;
51686;SDS011;37774;52.192;4.584;2022-11-14T07:51:14;55.80;;;19.13;;
51686;SDS011;37774;52.192;4.584;2022-11-14T07:53:41;59.17;;;19.80;;
51686;SDS011;37774;52.192;4.584;2022-11-14T07:56:08;59.80;;;21.77;;
51686;SDS011;37774;52.192;4.584;2022-11-14T07:58:35;74.18;;;22.77;;
51686;SDS011;37774;52.192;4.584;2022-11-14T08:01:02;56.03;;;21.55;;
51686;SDS011;37774;52.192;4.584;2022-11-14T08:03:30;60.90;;;22.00;;
51686;SDS011;37774;52.192;4.584;2022-11-14T08:06:00;60.78;;;21.00;;
51686;SDS011;37774;52.192;4.584;2022-11-14T08:08:27;58.47;;;21.17;;
51686;SDS011;37774;52.192;4.584;2022-11-14T08:10:54;57.38;;;21.08;;
51686;SDS011;37774;52.192;4.584;2022-11-14T08:13:24;63.67;;;21.85;;
51686;SDS011;37774;52.192;4.584;2022-11-14T08:15:50;63.22;;;20.33;;
51686;SDS011;37774;52.192;4.584;2022-11-14T08:18:17;61.35;;;20.25;;
51686;SDS011;37774;52.192;4.584;2022-11-14T08:20:45;60.63;;;21.45;;
51686;SDS011;37774;52.192;4.584;2022-11-14T08:23:11;71.07;;;22.52;;
51686;SDS011;37774;52.192;4.584;2022-11-14T08:25:38;74.75;;;21.92;;
51686;SDS011;37774;52.192;4.584;2022-11-14T08:28:05;67.38;;;22.42;;
51686;SDS011;37774;52.192;4.584;2022-11-14T08:30:32;61.65;;;22.30;;
51686;SDS011;37774;52.192;4.584;2022-11-14T08:33:00;62.10;;;21.50;;
51686;SDS011;37774;52.192;4.584;2022-11-14T08:35:27;71.07;;;22.02;;
51686;SDS011;37774;52.192;4.584;2022-11-14T08:37:55;74.43;;;23.90;;
51686;SDS011;37774;52.192;4.584;2022-11-14T08:40:22;67.93;;;23.77;;
51686;SDS011;37774;52.192;4.584;2022-11-14T08:42:48;62.55;;;21.92;;
51686;SDS011;37774;52.192;4.584;2022-11-14T08:45:15;81.40;;;24.15;;
51686;SDS011;37774;52.192;4.584;2022-11-14T08:47:41;73.75;;;24.58;;
51686;SDS011;37774;52.192;4.584;2022-11-14T08:50:08;63.33;;;23.25;;
51686;SDS011;37774;52.192;4.584;2022-11-14T08:52:35;80.95;;;24.77;;
51686;SDS011;37774;52.192;4.584;2022-11-14T08:55:03;72.50;;;24.60;;
51686;SDS011;37774;52.192;4.584;2022-11-14T08:57:29;81.43;;;24.40;;
51686;SDS011;37774;52.192;4.584;2022-11-14T08:59:56;58.85;;;21.38;;
51686;SDS011;37774;52.192;4.584;2022-11-14T09:02:22;60.63;;;21.95;;
51686;SDS011;37774;52.192;4.584;2022-11-14T09:04:49;69.72;;;21.38;;
51686;SDS011;37774;52.192;4.584;2022-11-14T09:07:15;69.20;;;21.15;;
51686;SDS011;37774;52.192;4.584;2022-11-14T09:09:42;84.75;;;22.48;;
51686;SDS011;37774;52.192;4.584;2022-11-14T09:12:10;82.03;;;24.42;;
51686;SDS011;37774;52.192;4.584;2022-11-14T09:14:37;69.78;;;22.88;;
51686;SDS011;37774;52.192;4.584;2022-11-14T09:17:03;57.85;;;20.75;;
51686;SDS011;37774;52.192;4.584;2022-11-14T09:19:30;51.72;;;21.40;;
51686;SDS011;37774;52.192;4.584;2022-11-14T09:21:56;66.20;;;22.35;;
51686;SDS011;37774;52.192;4.584;2022-11-14T09:24:23;65.47;;;21.88;;
51686;SDS011;37774;52.192;4.584;2022-11-14T09:26:49;71.72;;;21.80;;
51686;SDS011;37774;52.192;4.584;2022-11-14T09:29:18;58.03;;;20.67;;
51686;SDS011;37774;52.192;4.584;2022-11-14T09:31:44;60.55;;;22.60;;
51686;SDS011;37774;52.192;4.584;2022-11-14T09:34:11;53.63;;;20.05;;
51686;SDS011;37774;52.192;4.584;2022-11-14T09:36:38;58.85;;;21.02;;
51686;SDS011;37774;52.192;4.584;2022-11-14T09:39:04;52.42;;;20.85;;
51686;SDS011;37774;52.192;4.584;2022-11-14T09:41:35;62.00;;;20.40;;
51686;SDS011;37774;52.192;4.584;2022-11-14T09:44:15;51.90;;;20.75;;
51686;SDS011;37774;52.192;4.584;2022-11-14T09:46:48;59.20;;;20.77;;
51686;SDS011;37774;52.192;4.584;2022-11-14T09:49:19;63.60;;;22.60;;
51686;SDS011;37774;52.192;4.584;2022-11-14T09:51:49;58.13;;;20.38;;
51686;SDS011;37774;52.192;4.584;2022-11-14T09:54:19;54.35;;;19.80;;
51686;SDS011;37774;52.192;4.584;2022-11-14T09:56:47;58.35;;;21.35;;
51686;SDS011;37774;52.192;4.584;2022-11-14T09:59:13;52.13;;;21.80;;
51686;SDS011;37774;52.192;4.584;2022-11-14T10:01:41;55.58;;;20.83;;
51686;SDS011;37774;52.192;4.584;2022-11-14T10:04:16;70.50;;;21.23;;
51686;SDS011;37774;52.192;4.584;2022-11-14T10:06:48;51.50;;;19.92;;
51686;SDS011;37774;52.192;4.584;2022-11-14T10:09:26;55.15;;;19.33;;
51686;SDS011;37774;52.192;4.584;2022-11-14T10:11:58;53.90;;;19.45;;
51686;SDS011;37774;52.192;4.584;2022-11-14T10:14:37;52.22;;;19.15;;
51686;SDS011;37774;52.192;4.584;2022-11-14T10:17:16;57.08;;;19.45;;
51686;SDS011;37774;52.192;4.584;2022-11-14T10:19:50;57.25;;;19.00;;
51686;SDS011;37774;52.192;4.584;2022-11-14T10:22:29;55.88;;;19.05;;
51686;SDS011;37774;52.192;4.584;2022-11-14T10:25:06;44.92;;;19.70;;
51686;SDS011;37774;52.192;4.584;2022-11-14T10:27:41;47.70;;;18.52;;
51686;SDS011;37774;52.192;4.584;2022-11-14T10:30:11;43.55;;;17.98;;
51686;SDS011;37774;52.192;4.584;2022-11-14T10:32:47;40.00;;;16.80;;
51686;SDS011;37774;52.192;4.584;2022-11-14T10:35:17;52.10;;;17.88;;
51686;SDS011;37774;52.192;4.584;2022-11-14T10:37:47;43.55;;;17.58;;
51686;SDS011;37774;52.192;4.584;2022-11-14T10:40:16;34.35;;;15.77;;
51686;SDS011;37774;52.192;4.584;2022-11-14T10:42:45;35.72;;;15.07;;
51686;SDS011;37774;52.192;4.584;2022-11-14T10:45:15;49.65;;;15.32;;
51686;SDS011;37774;52.192;4.584;2022-11-14T10:47:45;40.28;;;16.40;;
51686;SDS011;37774;52.192;4.584;2022-11-14T10:50:13;33.97;;;15.70;;
51686;SDS011;37774;52.192;4.584;2022-11-14T10:52:44;37.75;;;15.15;;
51686;SDS011;37774;52.192;4.584;2022-11-14T10:55:12;39.42;;;14.60;;
51686;SDS011;37774;52.192;4.584;2022-11-14T10:57:44;31.92;;;15.15;;
51686;SDS011;37774;52.192;4.584;2022-11-14T11:00:11;39.22;;;15.35;;
51686;SDS011;37774;52.192;4.584;2022-11-14T11:02:46;26.33;;;12.82;;
51686;SDS011;37774;52.192;4.584;2022-11-14T11:05:16;30.50;;;14.93;;
51686;SDS011;37774;52.192;4.584;2022-11-14T11:07:45;26.33;;;13.48;;
51686;SDS011;37774;52.192;4.584;2022-11-14T11:10:30;32.00;;;13.82;;
51686;SDS011;37774;52.192;4.584;2022-11-14T11:13:26;29.33;;;11.90;;
51686;SDS011;37774;52.192;4.584;2022-11-14T11:15:55;28.35;;;12.52;;
51686;SDS011;37774;52.192;4.584;2022-11-14T11:18:24;24.92;;;12.80;;
51686;SDS011;37774;52.192;4.584;2022-11-14T11:21:00;34.35;;;11.38;;
51686;SDS011;37774;52.192;4.584;2022-11-14T11:23:28;27.08;;;12.27;;
51686;SDS011;37774;52.192;4.584;2022-11-14T11:25:57;27.25;;;10.88;;
51686;SDS011;37774;52.192;4.584;2022-11-14T11:28:24;27.70;;;12.23;;
51686;SDS011;37774;52.192;4.584;2022-11-14T11:30:55;21.25;;;11.95;;
51686;SDS011;37774;52.192;4.584;2022-11-14T11:33:22;30.58;;;13.02;;
51686;SDS011;37774;52.192;4.584;2022-11-14T11:35:51;25.20;;;11.90;;
51686;SDS011;37774;52.192;4.584;2022-11-14T11:38:20;22.88;;;11.02;;
51686;SDS011;37774;52.192;4.584;2022-11-14T11:40:49;23.88;;;10.82;;
51686;SDS011;37774;52.192;4.584;2022-11-14T11:43:19;29.02;;;13.20;;
51686;SDS011;37774;52.192;4.584;2022-11-14T11:45:50;25.60;;;11.43;;
51686;SDS011;37774;52.192;4.584;2022-11-14T11:48:18;25.27;;;11.52;;
51686;SDS011;37774;52.192;4.584;2022-11-14T11:50:45;30.90;;;11.65;;
51686;SDS011;37774;52.192;4.584;2022-11-14T11:53:14;26.70;;;10.95;;
51686;SDS011;37774;52.192;4.584;2022-11-14T11:55:43;30.92;;;11.00;;
51686;SDS011;37774;52.192;4.584;2022-11-14T11:58:14;21.42;;;10.57;;
51686;SDS011;37774;52.192;4.584;2022-11-14T12:00:42;24.60;;;11.02;;
51686;SDS011;37774;52.192;4.584;2022-11-14T12:03:10;26.02;;;10.35;;
51686;SDS011;37774;52.192;4.584;2022-11-14T12:05:40;24.38;;;11.02;;
51686;SDS011;37774;52.192;4.584;2022-11-14T12:08:11;25.63;;;11.43;;
51686;SDS011;37774;52.192;4.584;2022-11-14T12:10:38;21.52;;;10.63;;
51686;SDS011;37774;52.192;4.584;2022-11-14T12:15:52;22.65;;;10.10;;
51686;SDS011;37774;52.192;4.584;2022-11-14T12:18:32;26.25;;;10.75;;
51686;SDS011;37774;52.192;4.584;2022-11-14T12:21:09;16.02;;;9.18;;
51686;SDS011;37774;52.192;4.584;2022-11-14T12:26:27;22.30;;;9.68;;
51686;SDS011;37774;52.192;4.584;2022-11-14T12:29:00;17.38;;;9.40;;
51686;SDS011;37774;52.192;4.584;2022-11-14T12:31:32;18.85;;;9.25;;
51686;SDS011;37774;52.192;4.584;2022-11-14T12:34:01;23.17;;;10.25;;
51686;SDS011;37774;52.192;4.584;2022-11-14T12:36:30;22.95;;;10.05;;
51686;SDS011;37774;52.192;4.584;2022-11-14T12:38:57;15.30;;;9.07;;
51686;SDS011;37774;52.192;4.584;2022-11-14T12:41:24;21.70;;;9.77;;
51686;SDS011;37774;52.192;4.584;2022-11-14T12:43:52;20.05;;;8.88;;
51686;SDS011;37774;52.192;4.584;2022-11-14T12:46:18;31.17;;;10.98;;
51686;SDS011;37774;52.192;4.584;2022-11-14T12:48:46;34.13;;;11.07;;
51686;SDS011;37774;52.192;4.584;2022-11-14T12:53:58;25.60;;;10.73;;
51686;SDS011;37774;52.192;4.584;2022-11-14T12:56:39;22.85;;;9.77;;
51686;SDS011;37774;52.192;4.584;2022-11-14T12:59:24;17.33;;;9.25;;
51686;SDS011;37774;52.192;4.584;2022-11-14T13:02:08;25.48;;;10.10;;
51686;SDS011;37774;52.192;4.584;2022-11-14T13:04:42;22.90;;;9.82;;
51686;SDS011;37774;52.192;4.584;2022-11-14T13:07:14;23.38;;;8.88;;
51686;SDS011;37774;52.192;4.584;2022-11-14T13:09:53;21.33;;;9.80;;
51686;SDS011;37774;52.192;4.584;2022-11-14T13:12:26;21.58;;;10.70;;
51686;SDS011;37774;52.192;4.584;2022-11-14T13:15:21;23.52;;;11.20;;
51686;SDS011;37774;52.192;4.584;2022-11-14T13:21:18;23.23;;;11.48;;
51686;SDS011;37774;52.192;4.584;2022-11-14T13:24:02;27.95;;;10.82;;
51686;SDS011;37774;52.192;4.584;2022-11-14T13:32:01;24.80;;;10.75;;
51686;SDS011;37774;52.192;4.584;2022-11-14T13:34:31;26.55;;;12.15;;
51686;SDS011;37774;52.192;4.584;2022-11-14T13:37:03;19.42;;;11.05;;
51686;SDS011;37774;52.192;4.584;2022-11-14T13:39:33;22.40;;;11.18;;
51686;SDS011;37774;52.192;4.584;2022-11-14T13:47:32;18.15;;;9.63;;
51686;SDS011;37774;52.192;4.584;2022-11-14T13:50:01;21.65;;;11.32;;
51686;SDS011;37774;52.192;4.584;2022-11-14T13:52:30;20.83;;;11.25;;
51686;SDS011;37774;52.192;4.584;2022-11-14T13:54:57;20.42;;;10.60;;
51686;SDS011;37774;52.192;4.584;2022-11-14T13:57:26;18.85;;;10.77;;
51686;SDS011;37774;52.192;4.584;2022-11-14T14:00:00;25.42;;;11.73;;
51686;SDS011;37774;52.192;4.584;2022-11-14T14:02:31;20.45;;;10.85;;
51686;SDS011;37774;52.192;4.584;2022-11-14T14:05:03;25.35;;;11.75;;
51686;SDS011;37774;52.192;4.584;2022-11-14T14:07:39;25.05;;;11.60;;
51686;SDS011;37774;52.192;4.584;2022-11-14T14:10:14;23.17;;;12.40;;
51686;SDS011;37774;52.192;4.584;2022-11-14T14:12:50;27.98;;;11.68;;
51686;SDS011;37774;52.192;4.584;2022-11-14T14:15:19;21.02;;;11.15;;
51686;SDS011;37774;52.192;4.584;2022-11-14T14:17:54;25.98;;;12.02;;
51686;SDS011;37774;52.192;4.584;2022-11-14T14:20:26;30.35;;;13.75;;
51686;SDS011;37774;52.192;4.584;2022-11-14T14:22:59;33.72;;;13.10;;
51686;SDS011;37774;52.192;4.584;2022-11-14T14:25:30;24.73;;;11.82;;
51686;SDS011;37774;52.192;4.584;2022-11-14T14:28:02;23.73;;;12.65;;
51686;SDS011;37774;52.192;4.584;2022-11-14T14:30:31;32.60;;;13.23;;
51686;SDS011;37774;52.192;4.584;2022-11-14T14:33:01;25.90;;;14.00;;
51686;SDS011;37774;52.192;4.584;2022-11-14T14:35:28;35.42;;;12.63;;
51686;SDS011;37774;52.192;4.584;2022-11-14T14:37:57;24.75;;;13.02;;
51686;SDS011;37774;52.192;4.584;2022-11-14T14:40:24;23.38;;;12.90;;
51686;SDS011;37774;52.192;4.584;2022-11-14T14:42:51;26.50;;;12.13;;
51686;SDS011;37774;52.192;4.584;2022-11-14T14:45:19;29.25;;;12.90;;
51686;SDS011;37774;52.192;4.584;2022-11-14T14:47:46;28.60;;;13.05;;
51686;SDS011;37774;52.192;4.584;2022-11-14T14:50:14;37.10;;;13.48;;